sensor_id;sensor_type;location;lat;lon;timestamp;temperature;humidity
47434;SHT31;33184;48.774;8.918;2022-09-09T00:02:28;15.22;74.32
47434;SHT31;33184;48.774;8.918;2022-09-09T00:07:54;15.23;73.96
47434;SHT31;33184;48.774;8.918;2022-09-09T00:13:22;15.29;73.71
47434;SHT31;33184;48.774;8.918;2022-09-09T00:18:52;15.32;73.17
47434;SHT31;33184;48.774;8.918;2022-09-09T00:24:36;15.44;72.68
47434;SHT31;33184;48.774;8.918;2022-09-09T00:35:25;15.56;72.84
47434;SHT31;33184;48.774;8.918;2022-09-09T00:40:51;15.60;72.80
47434;SHT31;33184;48.774;8.918;2022-09-09T00:57:38;15.57;72.37
47434;SHT31;33184;48.774;8.918;2022-09-09T01:09:02;15.70;72.44
47434;SHT31;33184;48.774;8.918;2022-09-09T01:26:08;15.44;73.47
47434;SHT31;33184;48.774;8.918;2022-09-09T01:31:57;15.61;73.69
47434;SHT31;33184;48.774;8.918;2022-09-09T01:37:18;15.54;73.44
47434;SHT31;33184;48.774;8.918;2022-09-09T01:42:39;15.50;73.26
47434;SHT31;33184;48.774;8.918;2022-09-09T01:48:00;15.54;73.27
47434;SHT31;33184;48.774;8.918;2022-09-09T01:53:35;15.80;71.03
47434;SHT31;33184;48.774;8.918;2022-09-09T02:04:38;15.77;71.20
47434;SHT31;33184;48.774;8.918;2022-09-09T02:10:19;15.67;71.79
47434;SHT31;33184;48.774;8.918;2022-09-09T02:16:04;15.57;72.50
47434;SHT31;33184;48.774;8.918;2022-09-09T02:21:28;15.40;73.55
47434;SHT31;33184;48.774;8.918;2022-09-09T02:26:54;15.24;74.34
47434;SHT31;33184;48.774;8.918;2022-09-09T02:32:21;15.15;74.47
47434;SHT31;33184;48.774;8.918;2022-09-09T02:37:44;15.19;74.47
47434;SHT31;33184;48.774;8.918;2022-09-09T02:43:07;15.17;74.86
47434;SHT31;33184;48.774;8.918;2022-09-09T02:48:41;15.06;74.99
47434;SHT31;33184;48.774;8.918;2022-09-09T02:59:44;15.02;75.28
47434;SHT31;33184;48.774;8.918;2022-09-09T03:05:06;15.06;75.57
47434;SHT31;33184;48.774;8.918;2022-09-09T03:10:27;15.00;75.68
47434;SHT31;33184;48.774;8.918;2022-09-09T03:15:48;14.92;75.98
47434;SHT31;33184;48.774;8.918;2022-09-09T03:21:11;14.89;76.02
47434;SHT31;33184;48.774;8.918;2022-09-09T03:26:33;14.82;76.02
47434;SHT31;33184;48.774;8.918;2022-09-09T03:31:55;14.75;75.89
47434;SHT31;33184;48.774;8.918;2022-09-09T03:37:16;14.72;75.92
47434;SHT31;33184;48.774;8.918;2022-09-09T03:42:39;14.74;75.75
47434;SHT31;33184;48.774;8.918;2022-09-09T03:47:59;14.72;75.65
47434;SHT31;33184;48.774;8.918;2022-09-09T03:53:22;14.76;75.57
47434;SHT31;33184;48.774;8.918;2022-09-09T03:58:43;14.74;76.00
47434;SHT31;33184;48.774;8.918;2022-09-09T04:04:06;14.74;75.96
47434;SHT31;33184;48.774;8.918;2022-09-09T04:09:27;14.68;76.27
47434;SHT31;33184;48.774;8.918;2022-09-09T04:14:50;14.72;76.01
47434;SHT31;33184;48.774;8.918;2022-09-09T04:20:10;14.76;75.76
47434;SHT31;33184;48.774;8.918;2022-09-09T04:25:32;14.75;75.63
47434;SHT31;33184;48.774;8.918;2022-09-09T04:30:54;14.85;75.74
47434;SHT31;33184;48.774;8.918;2022-09-09T04:36:16;14.85;75.43
47434;SHT31;33184;48.774;8.918;2022-09-09T04:41:38;14.78;75.60
47434;SHT31;33184;48.774;8.918;2022-09-09T04:47:00;14.78;75.88
47434;SHT31;33184;48.774;8.918;2022-09-09T04:52:21;14.69;76.01
47434;SHT31;33184;48.774;8.918;2022-09-09T04:57:41;14.65;76.38
47434;SHT31;33184;48.774;8.918;2022-09-09T05:03:05;14.64;76.61
47434;SHT31;33184;48.774;8.918;2022-09-09T05:08:26;14.74;76.27
47434;SHT31;33184;48.774;8.918;2022-09-09T05:13:48;14.74;76.18
47434;SHT31;33184;48.774;8.918;2022-09-09T05:19:11;14.72;76.26
47434;SHT31;33184;48.774;8.918;2022-09-09T05:24:38;14.75;76.31
47434;SHT31;33184;48.774;8.918;2022-09-09T05:29:59;14.78;76.45
47434;SHT31;33184;48.774;8.918;2022-09-09T05:35:20;14.78;76.52
47434;SHT31;33184;48.774;8.918;2022-09-09T05:40:47;14.86;76.16
47434;SHT31;33184;48.774;8.918;2022-09-09T05:46:11;14.95;75.80
47434;SHT31;33184;48.774;8.918;2022-09-09T05:51:32;15.03;75.92
47434;SHT31;33184;48.774;8.918;2022-09-09T05:56:57;15.07;75.50
47434;SHT31;33184;48.774;8.918;2022-09-09T06:02:18;15.09;75.36
47434;SHT31;33184;48.774;8.918;2022-09-09T06:07:39;15.07;75.24
47434;SHT31;33184;48.774;8.918;2022-09-09T06:13:03;15.10;75.14
47434;SHT31;33184;48.774;8.918;2022-09-09T06:18:25;15.06;75.37
47434;SHT31;33184;48.774;8.918;2022-09-09T06:23:48;15.03;75.55
47434;SHT31;33184;48.774;8.918;2022-09-09T06:29:09;15.12;75.47
47434;SHT31;33184;48.774;8.918;2022-09-09T06:34:30;15.27;75.29
47434;SHT31;33184;48.774;8.918;2022-09-09T06:39:52;15.51;75.48
47434;SHT31;33184;48.774;8.918;2022-09-09T06:45:15;15.54;75.52
47434;SHT31;33184;48.774;8.918;2022-09-09T06:50:46;15.64;75.47
47434;SHT31;33184;48.774;8.918;2022-09-09T07:01:33;15.78;75.08
47434;SHT31;33184;48.774;8.918;2022-09-09T07:06:57;15.97;75.33
47434;SHT31;33184;48.774;8.918;2022-09-09T07:12:19;16.11;73.87
47434;SHT31;33184;48.774;8.918;2022-09-09T07:17:48;16.25;73.53
47434;SHT31;33184;48.774;8.918;2022-09-09T07:23:09;16.35;73.36
47434;SHT31;33184;48.774;8.918;2022-09-09T07:28:30;16.42;73.56
47434;SHT31;33184;48.774;8.918;2022-09-09T07:33:52;16.59;73.67
47434;SHT31;33184;48.774;8.918;2022-09-09T07:39:13;16.99;72.16
47434;SHT31;33184;48.774;8.918;2022-09-09T07:44:38;17.24;71.10
47434;SHT31;33184;48.774;8.918;2022-09-09T07:50:06;17.37;70.52
47434;SHT31;33184;48.774;8.918;2022-09-09T07:55:27;17.38;70.23
47434;SHT31;33184;48.774;8.918;2022-09-09T08:00:48;17.57;70.15
47434;SHT31;33184;48.774;8.918;2022-09-09T08:06:11;17.78;69.16
47434;SHT31;33184;48.774;8.918;2022-09-09T08:11:33;17.96;68.67
47434;SHT31;33184;48.774;8.918;2022-09-09T08:16:55;18.26;68.21
47434;SHT31;33184;48.774;8.918;2022-09-09T08:22:19;18.16;68.02
47434;SHT31;33184;48.774;8.918;2022-09-09T08:27:39;18.33;67.36
47434;SHT31;33184;48.774;8.918;2022-09-09T08:33:00;18.77;66.36
47434;SHT31;33184;48.774;8.918;2022-09-09T08:38:22;18.83;61.85
47434;SHT31;33184;48.774;8.918;2022-09-09T08:43:46;18.94;62.23
47434;SHT31;33184;48.774;8.918;2022-09-09T08:49:18;19.06;61.84
47434;SHT31;33184;48.774;8.918;2022-09-09T08:54:40;18.80;61.78
47434;SHT31;33184;48.774;8.918;2022-09-09T09:00:01;18.60;63.75
47434;SHT31;33184;48.774;8.918;2022-09-09T09:05:33;18.60;65.36
47434;SHT31;33184;48.774;8.918;2022-09-09T09:10:57;18.63;64.65
47434;SHT31;33184;48.774;8.918;2022-09-09T09:16:52;18.50;63.61
47434;SHT31;33184;48.774;8.918;2022-09-09T09:27:45;18.97;64.41
47434;SHT31;33184;48.774;8.918;2022-09-09T09:38:32;18.97;62.26
47434;SHT31;33184;48.774;8.918;2022-09-09T09:43:54;19.39;60.95
47434;SHT31;33184;48.774;8.918;2022-09-09T09:49:15;19.39;58.85
47434;SHT31;33184;48.774;8.918;2022-09-09T09:54:39;19.70;57.15
47434;SHT31;33184;48.774;8.918;2022-09-09T10:05:35;19.97;57.95
47434;SHT31;33184;48.774;8.918;2022-09-09T10:11:24;19.87;56.51
47434;SHT31;33184;48.774;8.918;2022-09-09T10:22:26;19.43;62.79
47434;SHT31;33184;48.774;8.918;2022-09-09T10:33:51;18.70;65.04
47434;SHT31;33184;48.774;8.918;2022-09-09T10:50:35;18.32;67.27
47434;SHT31;33184;48.774;8.918;2022-09-09T10:56:07;18.09;65.34
47434;SHT31;33184;48.774;8.918;2022-09-09T11:01:39;17.77;57.43
47434;SHT31;33184;48.774;8.918;2022-09-09T11:07:07;17.58;60.06
47434;SHT31;33184;48.774;8.918;2022-09-09T11:12:29;17.32;63.34
47434;SHT31;33184;48.774;8.918;2022-09-09T11:17:57;16.76;66.26
47434;SHT31;33184;48.774;8.918;2022-09-09T11:23:40;16.29;70.07
47434;SHT31;33184;48.774;8.918;2022-09-09T11:35:04;16.01;75.79
47434;SHT31;33184;48.774;8.918;2022-09-09T11:40:32;16.21;76.12
47434;SHT31;33184;48.774;8.918;2022-09-09T11:45:55;16.49;74.29
47434;SHT31;33184;48.774;8.918;2022-09-09T11:56:44;17.14;72.18
47434;SHT31;33184;48.774;8.918;2022-09-09T12:02:20;18.34;69.68
47434;SHT31;33184;48.774;8.918;2022-09-09T12:07:51;18.34;69.18
47434;SHT31;33184;48.774;8.918;2022-09-09T12:18:36;20.09;60.06
47434;SHT31;33184;48.774;8.918;2022-09-09T12:24:04;21.22;59.98
47434;SHT31;33184;48.774;8.918;2022-09-09T12:29:36;21.98;57.64
47434;SHT31;33184;48.774;8.918;2022-09-09T12:35:18;22.77;55.01
47434;SHT31;33184;48.774;8.918;2022-09-09T12:40:40;23.00;52.59
47434;SHT31;33184;48.774;8.918;2022-09-09T12:46:03;22.45;47.63
47434;SHT31;33184;48.774;8.918;2022-09-09T12:51:33;22.28;51.53
47434;SHT31;33184;48.774;8.918;2022-09-09T12:56:54;23.33;46.70
47434;SHT31;33184;48.774;8.918;2022-09-09T13:02:25;22.92;47.23
47434;SHT31;33184;48.774;8.918;2022-09-09T13:07:46;23.06;47.51
47434;SHT31;33184;48.774;8.918;2022-09-09T13:13:27;23.16;47.16
47434;SHT31;33184;48.774;8.918;2022-09-09T13:18:50;23.40;44.02
47434;SHT31;33184;48.774;8.918;2022-09-09T13:24:33;23.34;44.66
47434;SHT31;33184;48.774;8.918;2022-09-09T13:29:54;23.54;42.74
47434;SHT31;33184;48.774;8.918;2022-09-09T13:35:23;23.40;44.03
47434;SHT31;33184;48.774;8.918;2022-09-09T13:40:56;23.28;43.50
47434;SHT31;33184;48.774;8.918;2022-09-09T13:46:25;23.91;43.45
47434;SHT31;33184;48.774;8.918;2022-09-09T13:51:49;23.57;42.41
47434;SHT31;33184;48.774;8.918;2022-09-09T13:57:16;23.97;41.03
47434;SHT31;33184;48.774;8.918;2022-09-09T14:02:38;23.58;42.50
47434;SHT31;33184;48.774;8.918;2022-09-09T14:07:59;23.81;40.85
47434;SHT31;33184;48.774;8.918;2022-09-09T14:13:23;23.03;42.42
47434;SHT31;33184;48.774;8.918;2022-09-09T14:18:44;23.24;42.44
47434;SHT31;33184;48.774;8.918;2022-09-09T14:24:05;23.95;40.59
47434;SHT31;33184;48.774;8.918;2022-09-09T14:29:26;23.71;41.64
47434;SHT31;33184;48.774;8.918;2022-09-09T14:34:47;22.79;42.63
47434;SHT31;33184;48.774;8.918;2022-09-09T14:40:10;22.99;42.18
47434;SHT31;33184;48.774;8.918;2022-09-09T14:45:31;22.29;43.38
47434;SHT31;33184;48.774;8.918;2022-09-09T14:50:52;22.15;42.24
47434;SHT31;33184;48.774;8.918;2022-09-09T14:56:16;22.14;43.95
47434;SHT31;33184;48.774;8.918;2022-09-09T15:01:36;21.71;45.80
47434;SHT31;33184;48.774;8.918;2022-09-09T15:06:58;21.40;46.26
47434;SHT31;33184;48.774;8.918;2022-09-09T15:12:19;22.21;44.73
47434;SHT31;33184;48.774;8.918;2022-09-09T15:17:39;22.39;44.03
47434;SHT31;33184;48.774;8.918;2022-09-09T15:23:00;22.22;44.42
47434;SHT31;33184;48.774;8.918;2022-09-09T15:28:21;21.54;45.37
47434;SHT31;33184;48.774;8.918;2022-09-09T15:33:41;20.89;47.67
47434;SHT31;33184;48.774;8.918;2022-09-09T15:39:09;20.62;48.04
47434;SHT31;33184;48.774;8.918;2022-09-09T15:44:42;20.54;49.21
47434;SHT31;33184;48.774;8.918;2022-09-09T15:50:03;20.34;48.92
47434;SHT31;33184;48.774;8.918;2022-09-09T15:55:24;20.20;49.71
47434;SHT31;33184;48.774;8.918;2022-09-09T16:00:44;20.06;50.78
47434;SHT31;33184;48.774;8.918;2022-09-09T16:06:06;19.84;52.25
47434;SHT31;33184;48.774;8.918;2022-09-09T16:11:29;19.38;51.78
47434;SHT31;33184;48.774;8.918;2022-09-09T16:16:51;18.68;53.88
47434;SHT31;33184;48.774;8.918;2022-09-09T16:22:12;18.24;55.25
47434;SHT31;33184;48.774;8.918;2022-09-09T16:27:35;18.10;55.88
47434;SHT31;33184;48.774;8.918;2022-09-09T16:32:56;17.85;59.63
47434;SHT31;33184;48.774;8.918;2022-09-09T16:38:16;17.72;64.09
47434;SHT31;33184;48.774;8.918;2022-09-09T16:43:37;17.45;65.59
47434;SHT31;33184;48.774;8.918;2022-09-09T16:49:00;17.61;67.85
47434;SHT31;33184;48.774;8.918;2022-09-09T16:54:21;17.52;66.96
47434;SHT31;33184;48.774;8.918;2022-09-09T16:59:43;17.11;67.32
47434;SHT31;33184;48.774;8.918;2022-09-09T17:05:04;17.10;67.73
47434;SHT31;33184;48.774;8.918;2022-09-09T17:10:25;17.17;69.41
47434;SHT31;33184;48.774;8.918;2022-09-09T17:15:45;17.27;68.66
47434;SHT31;33184;48.774;8.918;2022-09-09T17:21:09;17.16;69.24
47434;SHT31;33184;48.774;8.918;2022-09-09T17:26:32;16.94;70.15
47434;SHT31;33184;48.774;8.918;2022-09-09T17:31:55;16.70;71.26
47434;SHT31;33184;48.774;8.918;2022-09-09T17:37:16;16.62;71.17
47434;SHT31;33184;48.774;8.918;2022-09-09T17:42:37;16.59;71.67
47434;SHT31;33184;48.774;8.918;2022-09-09T17:47:57;16.66;71.38
47434;SHT31;33184;48.774;8.918;2022-09-09T17:53:18;16.70;70.59
47434;SHT31;33184;48.774;8.918;2022-09-09T17:58:39;16.59;70.52
47434;SHT31;33184;48.774;8.918;2022-09-09T18:04:02;16.55;70.45
47434;SHT31;33184;48.774;8.918;2022-09-09T18:09:24;16.64;70.19
47434;SHT31;33184;48.774;8.918;2022-09-09T18:14:45;16.60;70.46
47434;SHT31;33184;48.774;8.918;2022-09-09T18:20:08;16.56;71.05
47434;SHT31;33184;48.774;8.918;2022-09-09T18:25:29;16.56;70.67
47434;SHT31;33184;48.774;8.918;2022-09-09T18:30:49;16.56;70.30
47434;SHT31;33184;48.774;8.918;2022-09-09T18:36:14;16.51;69.85
47434;SHT31;33184;48.774;8.918;2022-09-09T18:41:38;16.56;69.50
47434;SHT31;33184;48.774;8.918;2022-09-09T18:46:59;16.52;69.57
47434;SHT31;33184;48.774;8.918;2022-09-09T18:52:20;16.49;69.68
47434;SHT31;33184;48.774;8.918;2022-09-09T18:57:41;16.46;69.66
47434;SHT31;33184;48.774;8.918;2022-09-09T19:03:04;16.39;69.68
47434;SHT31;33184;48.774;8.918;2022-09-09T19:08:25;16.42;69.83
47434;SHT31;33184;48.774;8.918;2022-09-09T19:13:51;16.31;70.21
47434;SHT31;33184;48.774;8.918;2022-09-09T19:19:23;16.29;70.40
47434;SHT31;33184;48.774;8.918;2022-09-09T19:24:43;16.22;70.76
47434;SHT31;33184;48.774;8.918;2022-09-09T19:30:05;16.12;71.45
47434;SHT31;33184;48.774;8.918;2022-09-09T19:35:26;16.08;71.29
47434;SHT31;33184;48.774;8.918;2022-09-09T19:40:47;16.10;71.90
47434;SHT31;33184;48.774;8.918;2022-09-09T19:46:10;16.07;71.70
47434;SHT31;33184;48.774;8.918;2022-09-09T19:51:32;15.98;71.93
47434;SHT31;33184;48.774;8.918;2022-09-09T19:56:53;16.02;71.92
47434;SHT31;33184;48.774;8.918;2022-09-09T20:02:13;16.04;71.89
47434;SHT31;33184;48.774;8.918;2022-09-09T20:07:34;15.91;72.34
47434;SHT31;33184;48.774;8.918;2022-09-09T20:12:55;15.81;72.48
47434;SHT31;33184;48.774;8.918;2022-09-09T20:18:15;15.66;73.03
47434;SHT31;33184;48.774;8.918;2022-09-09T20:23:36;15.67;73.03
47434;SHT31;33184;48.774;8.918;2022-09-09T20:28:57;15.61;73.21
47434;SHT31;33184;48.774;8.918;2022-09-09T20:34:19;15.64;73.16
47434;SHT31;33184;48.774;8.918;2022-09-09T20:39:41;15.74;73.26
47434;SHT31;33184;48.774;8.918;2022-09-09T20:45:02;15.75;73.15
47434;SHT31;33184;48.774;8.918;2022-09-09T20:50:22;15.80;73.12
47434;SHT31;33184;48.774;8.918;2022-09-09T20:55:43;15.73;73.41
47434;SHT31;33184;48.774;8.918;2022-09-09T21:01:04;15.64;73.59
47434;SHT31;33184;48.774;8.918;2022-09-09T21:06:26;15.58;73.74
47434;SHT31;33184;48.774;8.918;2022-09-09T21:11:47;15.56;73.68
47434;SHT31;33184;48.774;8.918;2022-09-09T21:17:07;15.54;73.85
47434;SHT31;33184;48.774;8.918;2022-09-09T21:22:28;15.43;74.13
47434;SHT31;33184;48.774;8.918;2022-09-09T21:27:52;15.33;73.80
47434;SHT31;33184;48.774;8.918;2022-09-09T21:33:13;15.24;73.74
47434;SHT31;33184;48.774;8.918;2022-09-09T21:38:34;15.19;74.25
47434;SHT31;33184;48.774;8.918;2022-09-09T21:43:55;15.09;74.44
47434;SHT31;33184;48.774;8.918;2022-09-09T21:49:16;15.09;75.02
47434;SHT31;33184;48.774;8.918;2022-09-09T21:54:36;15.10;74.57
47434;SHT31;33184;48.774;8.918;2022-09-09T21:59:58;15.09;74.57
47434;SHT31;33184;48.774;8.918;2022-09-09T22:05:19;15.03;74.84
47434;SHT31;33184;48.774;8.918;2022-09-09T22:10:41;15.12;74.52
47434;SHT31;33184;48.774;8.918;2022-09-09T22:16:06;15.10;74.48
47434;SHT31;33184;48.774;8.918;2022-09-09T22:21:30;15.13;74.28
47434;SHT31;33184;48.774;8.918;2022-09-09T22:26:52;15.05;74.63
47434;SHT31;33184;48.774;8.918;2022-09-09T22:32:14;14.93;75.01
47434;SHT31;33184;48.774;8.918;2022-09-09T22:37:35;14.86;75.74
47434;SHT31;33184;48.774;8.918;2022-09-09T22:42:56;14.71;77.59
47434;SHT31;33184;48.774;8.918;2022-09-09T22:48:17;14.52;80.15
47434;SHT31;33184;48.774;8.918;2022-09-09T22:53:39;14.34;83.22
47434;SHT31;33184;48.774;8.918;2022-09-09T22:59:00;14.35;84.20
47434;SHT31;33184;48.774;8.918;2022-09-09T23:04:21;14.34;83.77
47434;SHT31;33184;48.774;8.918;2022-09-09T23:09:42;14.30;83.02
47434;SHT31;33184;48.774;8.918;2022-09-09T23:15:02;14.50;83.40
47434;SHT31;33184;48.774;8.918;2022-09-09T23:20:29;14.51;82.61
47434;SHT31;33184;48.774;8.918;2022-09-09T23:25:51;14.41;81.94
47434;SHT31;33184;48.774;8.918;2022-09-09T23:31:14;14.31;82.75
47434;SHT31;33184;48.774;8.918;2022-09-09T23:36:35;14.28;83.16
47434;SHT31;33184;48.774;8.918;2022-09-09T23:41:56;14.37;83.39
47434;SHT31;33184;48.774;8.918;2022-09-09T23:47:18;14.18;83.94
47434;SHT31;33184;48.774;8.918;2022-09-09T23:52:38;14.18;84.47
47434;SHT31;33184;48.774;8.918;2022-09-09T23:58:03;14.13;85.14
